sensor_id;sensor_type;location;lat;lon;timestamp;pressure;altitude;pressure_sealevel;temperature;humidity
2405;BME280;1213;43.206;27.922;2023-07-13T00:01:30;101291.81;;;24.22;100.00
2405;BME280;1213;43.206;27.922;2023-07-13T00:03:57;101293.03;;;24.19;100.00
2405;BME280;1213;43.206;27.922;2023-07-13T00:06:24;101293.03;;;24.19;100.00
2405;BME280;1213;43.206;27.922;2023-07-13T00:08:49;101290.22;;;24.13;100.00
2405;BME280;1213;43.206;27.922;2023-07-13T00:11:16;101293.56;;;24.15;100.00
2405;BME280;1213;43.206;27.922;2023-07-13T00:13:44;101294.56;;;24.14;100.00
2405;BME280;1213;43.206;27.922;2023-07-13T00:16:12;101293.72;;;24.13;100.00
2405;BME280;1213;43.206;27.922;2023-07-13T00:18:39;101294.06;;;24.10;100.00
2405;BME280;1213;43.206;27.922;2023-07-13T00:21:04;101280.94;;;24.15;100.00
2405;BME280;1213;43.206;27.922;2023-07-13T00:23:35;101279.81;;;24.09;100.00
2405;BME280;1213;43.206;27.922;2023-07-13T00:26:03;101279.81;;;24.09;100.00
2405;BME280;1213;43.206;27.922;2023-07-13T00:28:28;101274.28;;;24.11;100.00
2405;BME280;1213;43.206;27.922;2023-07-13T00:30:54;101275.28;;;24.10;100.00
2405;BME280;1213;43.206;27.922;2023-07-13T00:33:20;101270.91;;;24.09;100.00
2405;BME280;1213;43.206;27.922;2023-07-13T00:35:45;101265.06;;;24.05;100.00
2405;BME280;1213;43.206;27.922;2023-07-13T00:38:11;101259.72;;;24.05;100.00
2405;BME280;1213;43.206;27.922;2023-07-13T00:40:37;101254.69;;;24.02;100.00
2405;BME280;1213;43.206;27.922;2023-07-13T00:43:04;101260.88;;;24.03;100.00
2405;BME280;1213;43.206;27.922;2023-07-13T00:47:56;101252.00;;;24.02;100.00
2405;BME280;1213;43.206;27.922;2023-07-13T00:50:23;101244.94;;;24.01;100.00
2405;BME280;1213;43.206;27.922;2023-07-13T00:52:53;101239.25;;;24.04;100.00
2405;BME280;1213;43.206;27.922;2023-07-13T00:55:21;101242.09;;;24.03;100.00
2405;BME280;1213;43.206;27.922;2023-07-13T00:57:46;101235.00;;;24.10;100.00
2405;BME280;1213;43.206;27.922;2023-07-13T01:00:13;101241.69;;;24.14;100.00
2405;BME280;1213;43.206;27.922;2023-07-13T01:02:41;101242.88;;;24.12;100.00
2405;BME280;1213;43.206;27.922;2023-07-13T01:05:15;101235.16;;;24.08;100.00
2405;BME280;1213;43.206;27.922;2023-07-13T01:07:43;101230.16;;;24.05;100.00
2405;BME280;1213;43.206;27.922;2023-07-13T01:10:13;101234.00;;;24.11;100.00
2405;BME280;1213;43.206;27.922;2023-07-13T01:12:38;101226.78;;;24.12;100.00
2405;BME280;1213;43.206;27.922;2023-07-13T01:15:05;101228.13;;;24.07;100.00
2405;BME280;1213;43.206;27.922;2023-07-13T01:17:33;101221.75;;;24.08;100.00
2405;BME280;1213;43.206;27.922;2023-07-13T01:19:59;101213.69;;;24.08;100.00
2405;BME280;1213;43.206;27.922;2023-07-13T01:22:25;101219.72;;;24.11;100.00
2405;BME280;1213;43.206;27.922;2023-07-13T01:24:52;101215.53;;;24.08;100.00
2405;BME280;1213;43.206;27.922;2023-07-13T01:27:24;101204.81;;;24.08;100.00
2405;BME280;1213;43.206;27.922;2023-07-13T01:29:51;101211.91;;;24.01;100.00
2405;BME280;1213;43.206;27.922;2023-07-13T01:32:23;101208.03;;;24.03;100.00
2405;BME280;1213;43.206;27.922;2023-07-13T01:34:53;101213.41;;;24.03;100.00
2405;BME280;1213;43.206;27.922;2023-07-13T01:37:23;101208.75;;;23.97;100.00
2405;BME280;1213;43.206;27.922;2023-07-13T01:39:49;101206.53;;;24.01;100.00
2405;BME280;1213;43.206;27.922;2023-07-13T01:42:15;101206.72;;;23.99;100.00
2405;BME280;1213;43.206;27.922;2023-07-13T01:44:40;101206.72;;;23.99;100.00
2405;BME280;1213;43.206;27.922;2023-07-13T01:47:06;101198.66;;;23.99;100.00
2405;BME280;1213;43.206;27.922;2023-07-13T01:49:31;101193.09;;;24.01;100.00
2405;BME280;1213;43.206;27.922;2023-07-13T01:51:57;101204.88;;;24.00;100.00
2405;BME280;1213;43.206;27.922;2023-07-13T01:54:23;101190.41;;;24.01;100.00
2405;BME280;1213;43.206;27.922;2023-07-13T01:56:48;101192.09;;;24.02;100.00
2405;BME280;1213;43.206;27.922;2023-07-13T01:59:14;101192.22;;;24.08;100.00
2405;BME280;1213;43.206;27.922;2023-07-13T02:01:39;101185.34;;;24.06;100.00
2405;BME280;1213;43.206;27.922;2023-07-13T02:04:04;101186.19;;;24.06;100.00
2405;BME280;1213;43.206;27.922;2023-07-13T02:06:30;101185.41;;;23.98;100.00
2405;BME280;1213;43.206;27.922;2023-07-13T02:08:56;101186.06;;;24.00;100.00
2405;BME280;1213;43.206;27.922;2023-07-13T02:11:21;101199.03;;;23.96;100.00
2405;BME280;1213;43.206;27.922;2023-07-13T02:13:47;101192.97;;;23.94;100.00
2405;BME280;1213;43.206;27.922;2023-07-13T02:16:12;101194.19;;;23.92;100.00
2405;BME280;1213;43.206;27.922;2023-07-13T02:18:38;101194.38;;;23.90;100.00
2405;BME280;1213;43.206;27.922;2023-07-13T02:21:03;101194.56;;;23.89;100.00
2405;BME280;1213;43.206;27.922;2023-07-13T02:23:29;101187.66;;;23.86;100.00
2405;BME280;1213;43.206;27.922;2023-07-13T02:25:58;101187.84;;;23.85;100.00
2405;BME280;1213;43.206;27.922;2023-07-13T02:28:27;101188.69;;;23.85;100.00
2405;BME280;1213;43.206;27.922;2023-07-13T02:30:52;101185.47;;;23.90;100.00
2405;BME280;1213;43.206;27.922;2023-07-13T02:33:18;101190.72;;;23.83;100.00
2405;BME280;1213;43.206;27.922;2023-07-13T02:35:43;101191.38;;;23.85;100.00
2405;BME280;1213;43.206;27.922;2023-07-13T02:38:09;101185.66;;;23.88;100.00
2405;BME280;1213;43.206;27.922;2023-07-13T02:40:34;101187.84;;;23.85;100.00
2405;BME280;1213;43.206;27.922;2023-07-13T02:43:01;101181.66;;;23.84;100.00
2405;BME280;1213;43.206;27.922;2023-07-13T02:45:26;101190.06;;;23.81;100.00
2405;BME280;1213;43.206;27.922;2023-07-13T02:47:52;101184.03;;;23.79;100.00
2405;BME280;1213;43.206;27.922;2023-07-13T02:50:17;101191.75;;;23.82;100.00
2405;BME280;1213;43.206;27.922;2023-07-13T02:52:43;101196.94;;;23.84;100.00
2405;BME280;1213;43.206;27.922;2023-07-13T02:55:09;101194.25;;;23.84;100.00
2405;BME280;1213;43.206;27.922;2023-07-13T02:57:34;101188.22;;;23.82;100.00
2405;BME280;1213;43.206;27.922;2023-07-13T03:00:00;101188.88;;;23.84;100.00
2405;BME280;1213;43.206;27.922;2023-07-13T03:02:26;101186.38;;;23.82;100.00
2405;BME280;1213;43.206;27.922;2023-07-13T03:04:54;101187.03;;;23.84;100.00
2405;BME280;1213;43.206;27.922;2023-07-13T03:07:20;101185.00;;;23.86;100.00
2405;BME280;1213;43.206;27.922;2023-07-13T03:09:45;101186.66;;;23.87;100.00
2405;BME280;1213;43.206;27.922;2023-07-13T03:12:10;101187.63;;;23.94;100.00
2405;BME280;1213;43.206;27.922;2023-07-13T03:14:36;101181.22;;;23.95;100.00
2405;BME280;1213;43.206;27.922;2023-07-13T03:17:01;101179.22;;;23.97;100.00
2405;BME280;1213;43.206;27.922;2023-07-13T03:19:27;101181.53;;;24.00;100.00
2405;BME280;1213;43.206;27.922;2023-07-13T03:21:52;101179.88;;;23.99;100.00
2405;BME280;1213;43.206;27.922;2023-07-13T03:24:19;101187.63;;;23.94;100.00
2405;BME280;1213;43.206;27.922;2023-07-13T03:26:45;101180.69;;;24.00;100.00
2405;BME280;1213;43.206;27.922;2023-07-13T03:29:11;101185.69;;;24.03;100.00
2405;BME280;1213;43.206;27.922;2023-07-13T03:31:37;101189.25;;;24.03;100.00
2405;BME280;1213;43.206;27.922;2023-07-13T03:34:02;101185.53;;;24.04;100.00
2405;BME280;1213;43.206;27.922;2023-07-13T03:36:30;101187.66;;;24.09;100.00
2405;BME280;1213;43.206;27.922;2023-07-13T03:38:58;101189.19;;;24.12;100.00
2405;BME280;1213;43.206;27.922;2023-07-13T03:41:24;101186.97;;;24.15;100.00
2405;BME280;1213;43.206;27.922;2023-07-13T03:43:51;101191.13;;;24.18;100.00
2405;BME280;1213;43.206;27.922;2023-07-13T03:46:17;101182.72;;;24.21;100.00
2405;BME280;1213;43.206;27.922;2023-07-13T03:48:45;101184.56;;;24.20;100.00
2405;BME280;1213;43.206;27.922;2023-07-13T03:51:12;101184.75;;;24.19;100.00
2405;BME280;1213;43.206;27.922;2023-07-13T03:53:40;101195.50;;;24.19;100.00
2405;BME280;1213;43.206;27.922;2023-07-13T03:56:07;101193.78;;;24.26;100.00
2405;BME280;1213;43.206;27.922;2023-07-13T03:58:34;101193.66;;;24.19;100.00
2405;BME280;1213;43.206;27.922;2023-07-13T04:01:01;101189.63;;;24.15;100.00
2405;BME280;1213;43.206;27.922;2023-07-13T04:03:28;101196.78;;;24.23;100.00
2405;BME280;1213;43.206;27.922;2023-07-13T04:05:55;101196.69;;;24.16;100.00
2405;BME280;1213;43.206;27.922;2023-07-13T04:08:35;101193.94;;;24.24;100.00
2405;BME280;1213;43.206;27.922;2023-07-13T04:11:02;101190.72;;;24.29;100.00
2405;BME280;1213;43.206;27.922;2023-07-13T04:13:28;101193.88;;;24.32;100.00
2405;BME280;1213;43.206;27.922;2023-07-13T04:15:54;101195.22;;;24.37;100.00
2405;BME280;1213;43.206;27.922;2023-07-13T04:18:20;101201.72;;;24.42;100.00
2405;BME280;1213;43.206;27.922;2023-07-13T04:20:47;101190.97;;;24.42;100.00
2405;BME280;1213;43.206;27.922;2023-07-13T04:23:13;101192.91;;;24.48;100.00
2405;BME280;1213;43.206;27.922;2023-07-13T04:25:38;101195.69;;;24.55;100.00
2405;BME280;1213;43.206;27.922;2023-07-13T04:28:04;101197.13;;;24.66;100.00
2405;BME280;1213;43.206;27.922;2023-07-13T04:30:30;101199.63;;;24.67;100.00
2405;BME280;1213;43.206;27.922;2023-07-13T04:32:56;101201.94;;;24.70;100.00
2405;BME280;1213;43.206;27.922;2023-07-13T04:35:21;101203.88;;;24.76;100.00
2405;BME280;1213;43.206;27.922;2023-07-13T04:37:50;101205.41;;;24.79;100.00
2405;BME280;1213;43.206;27.922;2023-07-13T04:40:20;101211.03;;;24.84;100.00
2405;BME280;1213;43.206;27.922;2023-07-13T04:42:46;101213.91;;;24.82;100.00
2405;BME280;1213;43.206;27.922;2023-07-13T04:45:12;101215.03;;;24.88;100.00
2405;BME280;1213;43.206;27.922;2023-07-13T04:47:38;101219.94;;;24.99;100.00
2405;BME280;1213;43.206;27.922;2023-07-13T04:50:04;101219.03;;;25.07;100.00
2405;BME280;1213;43.206;27.922;2023-07-13T04:52:29;101220.44;;;25.17;100.00
2405;BME280;1213;43.206;27.922;2023-07-13T04:54:55;101223.97;;;25.18;100.00
2405;BME280;1213;43.206;27.922;2023-07-13T04:57:20;101224.44;;;25.22;100.00
2405;BME280;1213;43.206;27.922;2023-07-13T04:59:46;101229.34;;;25.33;100.00
2405;BME280;1213;43.206;27.922;2023-07-13T05:02:12;101227.00;;;25.30;100.00
2405;BME280;1213;43.206;27.922;2023-07-13T05:04:37;101225.63;;;25.34;100.00
2405;BME280;1213;43.206;27.922;2023-07-13T05:07:03;101225.53;;;25.42;100.00
2405;BME280;1213;43.206;27.922;2023-07-13T05:09:28;101234.31;;;25.51;100.00
2405;BME280;1213;43.206;27.922;2023-07-13T05:11:54;101228.84;;;25.59;100.00
2405;BME280;1213;43.206;27.922;2023-07-13T05:14:19;101228.91;;;25.65;100.00
2405;BME280;1213;43.206;27.922;2023-07-13T05:16:44;101233.66;;;25.63;100.00
2405;BME280;1213;43.206;27.922;2023-07-13T05:19:10;101236.72;;;25.60;100.00
2405;BME280;1213;43.206;27.922;2023-07-13T05:21:35;101231.22;;;25.68;100.00
2405;BME280;1213;43.206;27.922;2023-07-13T05:24:01;101235.69;;;25.61;100.00
2405;BME280;1213;43.206;27.922;2023-07-13T05:26:26;101241.16;;;25.68;100.00
2405;BME280;1213;43.206;27.922;2023-07-13T05:28:52;101240.63;;;25.72;100.00
2405;BME280;1213;43.206;27.922;2023-07-13T05:31:17;101246.44;;;25.76;100.00
2405;BME280;1213;43.206;27.922;2023-07-13T05:33:43;101239.47;;;25.82;100.00
2405;BME280;1213;43.206;27.922;2023-07-13T05:36:08;101248.78;;;25.79;100.00
2405;BME280;1213;43.206;27.922;2023-07-13T05:38:34;101245.59;;;25.90;100.00
2405;BME280;1213;43.206;27.922;2023-07-13T05:41:00;101257.06;;;25.99;100.00
2405;BME280;1213;43.206;27.922;2023-07-13T05:43:26;101250.47;;;26.02;100.00
2405;BME280;1213;43.206;27.922;2023-07-13T05:45:53;101262.44;;;25.99;100.00
2405;BME280;1213;43.206;27.922;2023-07-13T05:48:19;101257.34;;;26.04;100.00
2405;BME280;1213;43.206;27.922;2023-07-13T05:50:45;101255.75;;;26.10;100.00
2405;BME280;1213;43.206;27.922;2023-07-13T05:53:11;101262.09;;;26.23;100.00
2405;BME280;1213;43.206;27.922;2023-07-13T05:55:44;101252.22;;;26.31;100.00
2405;BME280;1213;43.206;27.922;2023-07-13T05:58:13;101257.97;;;26.27;100.00
2405;BME280;1213;43.206;27.922;2023-07-13T06:00:39;101254.72;;;26.32;100.00
2405;BME280;1213;43.206;27.922;2023-07-13T06:03:06;101270.69;;;26.34;100.00
2405;BME280;1213;43.206;27.922;2023-07-13T06:05:32;101261.88;;;26.40;100.00
2405;BME280;1213;43.206;27.922;2023-07-13T06:07:59;101252.63;;;26.49;100.00
2405;BME280;1213;43.206;27.922;2023-07-13T06:10:24;101256.19;;;26.56;100.00
2405;BME280;1213;43.206;27.922;2023-07-13T06:12:50;101255.88;;;26.66;100.00
2405;BME280;1213;43.206;27.922;2023-07-13T06:15:15;101253.41;;;26.71;100.00
2405;BME280;1213;43.206;27.922;2023-07-13T06:17:41;101260.06;;;26.75;100.00
2405;BME280;1213;43.206;27.922;2023-07-13T06:20:07;101258.09;;;26.83;100.00
2405;BME280;1213;43.206;27.922;2023-07-13T06:22:32;101265.97;;;26.85;100.00
2405;BME280;1213;43.206;27.922;2023-07-13T06:24:58;101269.75;;;26.91;100.00
2405;BME280;1213;43.206;27.922;2023-07-13T06:27:23;101261.25;;;26.94;100.00
2405;BME280;1213;43.206;27.922;2023-07-13T06:29:49;101259.19;;;26.96;100.00
2405;BME280;1213;43.206;27.922;2023-07-13T06:32:14;101262.34;;;26.99;100.00
2405;BME280;1213;43.206;27.922;2023-07-13T06:34:40;101260.28;;;27.01;100.00
2405;BME280;1213;43.206;27.922;2023-07-13T06:37:06;101259.53;;;27.07;100.00
2405;BME280;1213;43.206;27.922;2023-07-13T06:39:32;101255.84;;;27.15;100.00
2405;BME280;1213;43.206;27.922;2023-07-13T06:41:57;101257.50;;;27.16;100.00
2405;BME280;1213;43.206;27.922;2023-07-13T06:44:23;101262.28;;;27.14;100.00
2405;BME280;1213;43.206;27.922;2023-07-13T06:46:48;101267.47;;;27.16;100.00
2405;BME280;1213;43.206;27.922;2023-07-13T06:49:13;101266.00;;;27.20;100.00
2405;BME280;1213;43.206;27.922;2023-07-13T06:51:39;101260.25;;;27.23;100.00
2405;BME280;1213;43.206;27.922;2023-07-13T06:54:04;101259.56;;;27.14;100.00
2405;BME280;1213;43.206;27.922;2023-07-13T06:56:30;101254.13;;;27.07;100.00
2405;BME280;1213;43.206;27.922;2023-07-13T06:58:55;101260.72;;;27.05;100.00
2405;BME280;1213;43.206;27.922;2023-07-13T07:01:21;101260.41;;;27.15;100.00
2405;BME280;1213;43.206;27.922;2023-07-13T07:03:46;101257.09;;;27.19;100.00
2405;BME280;1213;43.206;27.922;2023-07-13T07:06:20;101246.53;;;27.24;100.00
2405;BME280;1213;43.206;27.922;2023-07-13T07:08:49;101252.94;;;27.17;100.00
2405;BME280;1213;43.206;27.922;2023-07-13T07:11:21;101249.22;;;27.24;100.00
2405;BME280;1213;43.206;27.922;2023-07-13T07:13:51;101255.91;;;27.28;100.00
2405;BME280;1213;43.206;27.922;2023-07-13T07:16:17;101249.84;;;27.26;100.00
2405;BME280;1213;43.206;27.922;2023-07-13T07:18:43;101252.09;;;27.16;100.00
2405;BME280;1213;43.206;27.922;2023-07-13T07:21:09;101256.13;;;27.33;100.00
2405;BME280;1213;43.206;27.922;2023-07-13T07:23:34;101255.53;;;27.38;100.00
2405;BME280;1213;43.206;27.922;2023-07-13T07:26:00;101259.31;;;27.44;100.00
2405;BME280;1213;43.206;27.922;2023-07-13T07:28:26;101253.91;;;27.44;100.00
2405;BME280;1213;43.206;27.922;2023-07-13T07:30:54;101254.09;;;27.42;100.00
2405;BME280;1213;43.206;27.922;2023-07-13T07:33:20;101253.91;;;27.44;100.00
2405;BME280;1213;43.206;27.922;2023-07-13T07:35:45;101255.16;;;27.48;100.00
2405;BME280;1213;43.206;27.922;2023-07-13T07:38:11;101254.78;;;27.51;100.00
2405;BME280;1213;43.206;27.922;2023-07-13T07:40:38;101251.03;;;27.52;100.00
2405;BME280;1213;43.206;27.922;2023-07-13T07:43:04;101257.91;;;27.54;100.00
2405;BME280;1213;43.206;27.922;2023-07-13T07:45:30;101259.78;;;27.60;100.00
2405;BME280;1213;43.206;27.922;2023-07-13T07:47:55;101257.31;;;27.59;100.00
2405;BME280;1213;43.206;27.922;2023-07-13T07:50:24;101266.66;;;27.63;100.00
2405;BME280;1213;43.206;27.922;2023-07-13T07:52:50;101260.41;;;27.62;100.00
2405;BME280;1213;43.206;27.922;2023-07-13T07:55:16;101259.00;;;27.67;100.00
2405;BME280;1213;43.206;27.922;2023-07-13T07:57:41;101264.78;;;27.63;100.00
2405;BME280;1213;43.206;27.922;2023-07-13T08:00:07;101259.59;;;27.62;100.00
2405;BME280;1213;43.206;27.922;2023-07-13T08:02:32;101261.88;;;27.65;100.00
2405;BME280;1213;43.206;27.922;2023-07-13T08:04:58;101259.66;;;27.69;100.00
2405;BME280;1213;43.206;27.922;2023-07-13T08:07:23;101266.97;;;27.81;100.00
2405;BME280;1213;43.206;27.922;2023-07-13T08:09:52;101263.88;;;27.91;100.00
2405;BME280;1213;43.206;27.922;2023-07-13T08:12:17;101263.84;;;27.84;100.00
2405;BME280;1213;43.206;27.922;2023-07-13T08:14:43;101262.41;;;27.82;100.00
2405;BME280;1213;43.206;27.922;2023-07-13T08:17:08;101250.78;;;28.01;100.00
2405;BME280;1213;43.206;27.922;2023-07-13T08:19:34;101253.28;;;28.03;100.00
2405;BME280;1213;43.206;27.922;2023-07-13T08:21:59;101256.22;;;28.08;100.00
2405;BME280;1213;43.206;27.922;2023-07-13T08:24:25;101261.22;;;28.17;100.00
2405;BME280;1213;43.206;27.922;2023-07-13T08:26:51;101254.78;;;28.18;100.00
2405;BME280;1213;43.206;27.922;2023-07-13T08:29:18;101256.44;;;28.26;100.00
2405;BME280;1213;43.206;27.922;2023-07-13T08:31:43;101259.56;;;28.23;100.00
2405;BME280;1213;43.206;27.922;2023-07-13T08:34:10;101253.13;;;28.24;100.00
2405;BME280;1213;43.206;27.922;2023-07-13T08:36:36;101256.66;;;28.25;100.00
2405;BME280;1213;43.206;27.922;2023-07-13T08:39:01;101253.41;;;28.42;100.00
2405;BME280;1213;43.206;27.922;2023-07-13T08:41:27;101253.81;;;28.59;100.00
2405;BME280;1213;43.206;27.922;2023-07-13T08:43:58;101255.69;;;28.72;100.00
2405;BME280;1213;43.206;27.922;2023-07-13T08:46:26;101259.63;;;28.76;100.00
2405;BME280;1213;43.206;27.922;2023-07-13T08:49:30;101251.94;;;28.73;100.00
2405;BME280;1213;43.206;27.922;2023-07-13T08:52:10;101255.88;;;28.77;100.00
2405;BME280;1213;43.206;27.922;2023-07-13T08:54:44;101258.56;;;28.84;100.00
2405;BME280;1213;43.206;27.922;2023-07-13T08:57:20;101259.41;;;28.97;100.00
2405;BME280;1213;43.206;27.922;2023-07-13T08:59:47;101261.06;;;28.98;100.00
2405;BME280;1213;43.206;27.922;2023-07-13T09:02:27;101258.56;;;28.84;100.00
2405;BME280;1213;43.206;27.922;2023-07-13T09:05:02;101251.88;;;28.86;100.00
2405;BME280;1213;43.206;27.922;2023-07-13T09:12:40;101259.16;;;29.19;100.00
2405;BME280;1213;43.206;27.922;2023-07-13T09:15:34;101253.75;;;29.19;100.00
2405;BME280;1213;43.206;27.922;2023-07-13T09:18:13;101249.53;;;29.29;100.00
2405;BME280;1213;43.206;27.922;2023-07-13T09:20:51;101257.41;;;29.44;100.00
2405;BME280;1213;43.206;27.922;2023-07-13T09:23:21;101254.50;;;29.39;100.00
2405;BME280;1213;43.206;27.922;2023-07-13T09:25:49;101259.91;;;29.46;100.00
2405;BME280;1213;43.206;27.922;2023-07-13T09:28:24;101265.75;;;29.56;100.00
2405;BME280;1213;43.206;27.922;2023-07-13T09:31:17;101262.19;;;29.55;100.00
2405;BME280;1213;43.206;27.922;2023-07-13T09:33:44;101258.22;;;29.58;100.00
2405;BME280;1213;43.206;27.922;2023-07-13T09:36:31;101258.59;;;29.62;100.00
2405;BME280;1213;43.206;27.922;2023-07-13T09:39:05;101244.19;;;29.68;100.00
2405;BME280;1213;43.206;27.922;2023-07-13T09:42:01;101249.78;;;29.79;100.00
2405;BME280;1213;43.206;27.922;2023-07-13T09:44:37;101249.88;;;29.60;100.00
2405;BME280;1213;43.206;27.922;2023-07-13T09:47:15;101247.72;;;29.75;100.00
2405;BME280;1213;43.206;27.922;2023-07-13T09:49:41;101239.09;;;29.84;100.00
2405;BME280;1213;43.206;27.922;2023-07-13T09:52:14;101245.41;;;29.78;100.00
2405;BME280;1213;43.206;27.922;2023-07-13T09:54:44;101240.59;;;29.80;100.00
2405;BME280;1213;43.206;27.922;2023-07-13T09:57:16;101241.47;;;29.74;100.00
2405;BME280;1213;43.206;27.922;2023-07-13T09:59:50;101241.13;;;29.96;100.00
2405;BME280;1213;43.206;27.922;2023-07-13T10:02:23;101239.41;;;30.08;100.00
2405;BME280;1213;43.206;27.922;2023-07-13T10:04:59;101234.06;;;30.26;100.00
2405;BME280;1213;43.206;27.922;2023-07-13T10:07:25;101232.91;;;30.41;100.00
2405;BME280;1213;43.206;27.922;2023-07-13T10:09:55;101217.38;;;30.54;100.00
2405;BME280;1213;43.206;27.922;2023-07-13T10:12:23;101215.25;;;30.81;100.00
2405;BME280;1213;43.206;27.922;2023-07-13T10:14:52;101219.50;;;31.32;100.00
2405;BME280;1213;43.206;27.922;2023-07-13T10:17:29;101217.16;;;31.36;100.00
2405;BME280;1213;43.206;27.922;2023-07-13T10:19:59;101218.28;;;31.28;100.00
2405;BME280;1213;43.206;27.922;2023-07-13T10:22:44;101204.41;;;31.18;100.00
2405;BME280;1213;43.206;27.922;2023-07-13T10:25:20;101208.25;;;30.92;100.00
2405;BME280;1213;43.206;27.922;2023-07-13T10:27:50;101208.31;;;31.04;100.00
2405;BME280;1213;43.206;27.922;2023-07-13T10:33:13;101195.88;;;30.96;100.00
2405;BME280;1213;43.206;27.922;2023-07-13T10:35:43;101187.19;;;30.87;100.00
2405;BME280;1213;43.206;27.922;2023-07-13T10:38:14;101202.97;;;30.97;100.00
2405;BME280;1213;43.206;27.922;2023-07-13T10:40:47;101199.06;;;30.93;100.00
2405;BME280;1213;43.206;27.922;2023-07-13T10:43:23;101205.22;;;30.82;100.00
2405;BME280;1213;43.206;27.922;2023-07-13T10:45:51;101197.09;;;31.00;100.00
2405;BME280;1213;43.206;27.922;2023-07-13T10:48:20;101193.31;;;31.01;100.00
2405;BME280;1213;43.206;27.922;2023-07-13T10:50:50;101190.44;;;31.14;100.00
2405;BME280;1213;43.206;27.922;2023-07-13T10:53:37;101192.63;;;31.06;100.00
2405;BME280;1213;43.206;27.922;2023-07-13T10:56:05;101194.97;;;31.02;100.00
2405;BME280;1213;43.206;27.922;2023-07-13T10:58:41;101195.25;;;31.12;100.00
2405;BME280;1213;43.206;27.922;2023-07-13T11:01:17;101188.03;;;31.06;100.00
2405;BME280;1213;43.206;27.922;2023-07-13T11:08:57;101197.38;;;31.10;100.00
2405;BME280;1213;43.206;27.922;2023-07-13T11:18:48;101190.50;;;30.89;100.00
2405;BME280;1213;43.206;27.922;2023-07-13T11:21:25;101192.16;;;30.90;100.00
2405;BME280;1213;43.206;27.922;2023-07-13T11:24:28;101192.50;;;31.01;100.00
2405;BME280;1213;43.206;27.922;2023-07-13T11:26:51;101191.19;;;31.21;100.00
2405;BME280;1213;43.206;27.922;2023-07-13T11:31:43;101192.09;;;31.34;100.00
2405;BME280;1213;43.206;27.922;2023-07-13T11:34:18;101191.19;;;31.40;100.00
2405;BME280;1213;43.206;27.922;2023-07-13T11:36:47;101191.72;;;31.48;100.00
2405;BME280;1213;43.206;27.922;2023-07-13T11:39:32;101186.88;;;31.51;100.00
2405;BME280;1213;43.206;27.922;2023-07-13T11:42:04;101191.78;;;31.60;100.00
2405;BME280;1213;43.206;27.922;2023-07-13T11:44:34;101187.66;;;31.69;100.00
2405;BME280;1213;43.206;27.922;2023-07-13T11:47:08;101201.00;;;31.71;100.00
2405;BME280;1213;43.206;27.922;2023-07-13T11:49:42;101196.16;;;31.73;100.00
2405;BME280;1213;43.206;27.922;2023-07-13T11:52:16;101195.09;;;31.74;100.00
2405;BME280;1213;43.206;27.922;2023-07-13T11:54:48;101170.63;;;31.74;100.00
2405;BME280;1213;43.206;27.922;2023-07-13T11:59:52;101170.44;;;31.45;100.00
2405;BME280;1213;43.206;27.922;2023-07-13T12:02:42;101177.78;;;31.45;100.00
2405;BME280;1213;43.206;27.922;2023-07-13T12:05:12;101180.41;;;31.52;100.00
2405;BME280;1213;43.206;27.922;2023-07-13T12:07:38;101179.25;;;31.59;100.00
2405;BME280;1213;43.206;27.922;2023-07-13T12:10:28;101174.41;;;31.73;100.00
2405;BME280;1213;43.206;27.922;2023-07-13T12:13:00;101177.38;;;31.71;100.00
2405;BME280;1213;43.206;27.922;2023-07-13T12:15:40;101178.03;;;31.85;100.00
2405;BME280;1213;43.206;27.922;2023-07-13T12:18:19;101179.34;;;31.83;100.00
2405;BME280;1213;43.206;27.922;2023-07-13T12:20:46;101175.81;;;31.82;100.00
2405;BME280;1213;43.206;27.922;2023-07-13T12:23:32;101167.41;;;31.84;100.00
2405;BME280;1213;43.206;27.922;2023-07-13T12:26:03;101167.06;;;31.92;100.00
2405;BME280;1213;43.206;27.922;2023-07-13T12:28:43;101167.31;;;32.02;100.00
2405;BME280;1213;43.206;27.922;2023-07-13T12:31:25;101156.81;;;32.06;100.00
2405;BME280;1213;43.206;27.922;2023-07-13T12:36:36;101157.63;;;32.06;100.00
2405;BME280;1213;43.206;27.922;2023-07-13T12:39:22;101155.84;;;32.12;100.00
2405;BME280;1213;43.206;27.922;2023-07-13T12:41:50;101154.19;;;32.11;100.00
2405;BME280;1213;43.206;27.922;2023-07-13T12:44:29;101135.16;;;31.99;100.00
2405;BME280;1213;43.206;27.922;2023-07-13T12:47:03;101142.84;;;31.90;100.00
2405;BME280;1213;43.206;27.922;2023-07-13T12:49:31;101147.94;;;31.98;100.00
2405;BME280;1213;43.206;27.922;2023-07-13T12:52:02;101145.56;;;32.02;100.00
2405;BME280;1213;43.206;27.922;2023-07-13T12:54:29;101146.38;;;32.02;100.00
2405;BME280;1213;43.206;27.922;2023-07-13T12:56:56;101136.91;;;31.93;100.00
2405;BME280;1213;43.206;27.922;2023-07-13T12:59:24;101131.63;;;31.98;100.00
2405;BME280;1213;43.206;27.922;2023-07-13T13:01:51;101135.97;;;32.11;100.00
2405;BME280;1213;43.206;27.922;2023-07-13T13:04:19;101107.97;;;32.11;100.00
2405;BME280;1213;43.206;27.922;2023-07-13T13:06:48;101113.41;;;31.99;100.00
2405;BME280;1213;43.206;27.922;2023-07-13T13:09:16;101103.69;;;32.03;100.00
2405;BME280;1213;43.206;27.922;2023-07-13T13:11:43;101106.69;;;32.13;100.00
2405;BME280;1213;43.206;27.922;2023-07-13T13:14:09;101108.44;;;32.19;100.00
2405;BME280;1213;43.206;27.922;2023-07-13T13:16:37;101102.53;;;32.11;100.00
2405;BME280;1213;43.206;27.922;2023-07-13T13:19:14;101103.59;;;32.10;100.00
2405;BME280;1213;43.206;27.922;2023-07-13T13:21:41;101099.75;;;31.75;100.00
2405;BME280;1213;43.206;27.922;2023-07-13T13:24:16;101090.94;;;32.03;100.00
2405;BME280;1213;43.206;27.922;2023-07-13T13:26:43;101095.34;;;32.05;100.00
2405;BME280;1213;43.206;27.922;2023-07-13T13:29:14;101110.59;;;32.06;100.00